Kitchener, Canada
Current Conditions -  °F | °C
As of 7:00 PM on Sunday 21 Dec 2014 (Local Time) from CYKF Reporting Station
Clear Clear  
Wind Chill: 14°   Ceiling: Unl
Heat Index: 21°   Visibility: 9mi
Dew Point: 18°   Wind: 6mph
Humidity: 86%   Direction: 70°ENE
Pressure: 30.26"   Gusts: NA
Location:  43.45°N, 80.49°W
Report Text: CYKF 220000Z AUTO 07005KT 9SM CLR M06/M08 A3026 RMK SLP265
Loading
Personal Weather Stations






























Interactive Weather Map New forecast layout! Learn more

10-Day Weather Forecast

Advertisements
Track Severe Weather on mobile